createdAt,value
2022-11-29T00:00:22.957Z,6.32
2022-11-29T00:03:10.504Z,6.34
2022-11-29T00:05:38.065Z,6.32
2022-11-29T00:08:08.188Z,6.31
2022-11-29T00:10:38.829Z,6.30
2022-11-29T00:13:05.967Z,6.29
2022-11-29T00:15:36.993Z,6.31
2022-11-29T00:18:07.660Z,6.22
2022-11-29T00:20:35.929Z,6.20
2022-11-29T00:23:04.207Z,6.31
2022-11-29T00:25:31.872Z,6.35
2022-11-29T00:28:02.418Z,6.31
2022-11-29T00:30:29.793Z,6.22
2022-11-29T00:32:57.135Z,6.16
2022-11-29T00:35:24.460Z,6.15
2022-11-29T00:37:51.888Z,6.12
2022-11-29T00:40:19.543Z,6.22
2022-11-29T00:42:47.204Z,6.25
2022-11-29T00:45:14.699Z,6.13
2022-11-29T00:47:44.397Z,6.15
2022-11-29T00:50:11.632Z,6.12
2022-11-29T00:52:38.779Z,6.12
2022-11-29T00:55:06.412Z,6.21
2022-11-29T00:57:33.548Z,6.19
2022-11-29T01:00:00.353Z,6.23
2022-11-29T01:02:27.689Z,6.27
2022-11-29T01:04:55.085Z,6.17
2022-11-29T01:07:22.568Z,6.20
2022-11-29T01:09:49.875Z,6.21
2022-11-29T01:12:17.371Z,6.26
2022-11-29T01:14:44.972Z,6.28
2022-11-29T01:17:12.642Z,6.36
2022-11-29T01:19:39.897Z,6.35
2022-11-29T01:22:07.463Z,6.41
2022-11-29T01:24:34.884Z,6.42
2022-11-29T01:27:02.488Z,6.37
2022-11-29T01:29:30.003Z,6.30
2022-11-29T01:31:57.604Z,6.31
2022-11-29T01:34:25.033Z,6.29
2022-11-29T01:36:52.591Z,6.32
2022-11-29T01:39:20.044Z,6.36
2022-11-29T01:41:47.593Z,6.32
2022-11-29T01:44:14.849Z,6.28
2022-11-29T01:46:46.957Z,6.32
2022-11-29T01:49:31.839Z,6.24
2022-11-29T01:52:12.196Z,6.21
2022-11-29T01:54:47.865Z,6.18
2022-11-29T01:57:19.294Z,6.19
2022-11-29T01:59:59.029Z,6.17
2022-11-29T02:02:41.576Z,6.23
2022-11-29T02:05:10.174Z,6.25
2022-11-29T02:07:38.398Z,6.28
2022-11-29T02:10:08.186Z,6.28
2022-11-29T02:13:07.373Z,6.26
2022-11-29T02:16:14.569Z,6.24
2022-11-29T02:19:31.074Z,6.24
2022-11-29T02:22:41.969Z,6.21
2022-11-29T02:25:42.848Z,6.17
2022-11-29T02:28:52.589Z,6.20
2022-11-29T02:36:00.222Z,6.24
2022-11-29T02:39:18.201Z,6.10
2022-11-29T02:42:04.216Z,6.17
2022-11-29T02:45:26.892Z,6.17
2022-11-29T02:48:12.552Z,6.20
2022-11-29T02:51:11.481Z,6.24
2022-11-29T02:54:07.183Z,6.22
2022-11-29T02:56:43.566Z,6.21
2022-11-29T03:00:07.037Z,6.07
2022-11-29T03:03:08.678Z,6.00
2022-11-29T03:06:12.021Z,6.04
2022-11-29T03:09:27.986Z,6.04
2022-11-29T03:12:41.908Z,6.00
2022-11-29T03:15:55.584Z,5.95
2022-11-29T03:19:13.330Z,5.85
2022-11-29T03:22:15.315Z,5.89
2022-11-29T03:25:13.047Z,5.91
2022-11-29T03:28:01.993Z,5.87
2022-11-29T03:30:38.155Z,5.95
2022-11-29T03:33:43.661Z,5.92
2022-11-29T03:36:44.603Z,5.90
2022-11-29T03:39:21.748Z,5.89
2022-11-29T03:41:59.136Z,5.85
2022-11-29T03:44:42.839Z,5.86
2022-11-29T03:47:22.393Z,5.85
2022-11-29T03:50:14.587Z,5.82
2022-11-29T03:53:33.354Z,5.83
2022-11-29T03:56:05.069Z,5.74
2022-11-29T03:59:09.440Z,5.72
2022-11-29T04:01:58.840Z,5.77
2022-11-29T04:05:00.126Z,5.80
2022-11-29T04:07:48.678Z,5.85
2022-11-29T04:11:04.015Z,5.85
2022-11-29T04:14:14.832Z,5.81
2022-11-29T04:16:53.692Z,5.77
2022-11-29T04:19:52.545Z,5.87
2022-11-29T04:23:04.833Z,5.94
2022-11-29T04:26:03.744Z,5.97
2022-11-29T04:29:08.985Z,6.02
2022-11-29T04:32:37.654Z,6.08
2022-11-29T04:36:09.794Z,6.10
2022-11-29T04:39:22.983Z,6.03
2022-11-29T04:42:37.313Z,6.09
2022-11-29T04:45:32.581Z,6.10
2022-11-29T04:48:38.256Z,6.07
2022-11-29T04:51:43.509Z,6.04
2022-11-29T04:54:21.393Z,6.04
2022-11-29T04:56:58.861Z,6.05
2022-11-29T04:59:43.804Z,6.09
2022-11-29T05:02:33.195Z,6.03
2022-11-29T05:05:47.535Z,5.99
2022-11-29T05:09:06.236Z,5.96
2022-11-29T05:11:38.690Z,5.95
2022-11-29T05:14:35.791Z,5.97
2022-11-29T05:17:21.252Z,6.01
2022-11-29T05:20:20.684Z,5.98
2022-11-29T05:23:26.329Z,6.07
2022-11-29T05:26:20.225Z,5.99
2022-11-29T05:29:01.356Z,5.97
2022-11-29T05:32:19.776Z,6.04
2022-11-29T05:35:03.200Z,6.02
2022-11-29T05:37:43.942Z,6.02
2022-11-29T05:41:21.116Z,6.05
2022-11-29T05:44:07.560Z,6.04
2022-11-29T05:46:58.831Z,6.08
2022-11-29T05:49:40.569Z,5.96
2022-11-29T05:52:31.275Z,5.85
2022-11-29T05:55:14.381Z,5.88
2022-11-29T05:58:02.220Z,5.94
2022-11-29T06:01:15.465Z,5.90
2022-11-29T06:04:24.889Z,5.91
2022-11-29T06:07:11.814Z,5.91
2022-11-29T06:09:51.387Z,5.92
2022-11-29T06:12:25.358Z,5.96
2022-11-29T06:15:30.682Z,5.97
2022-11-29T06:19:17.272Z,5.98
2022-11-29T06:22:24.614Z,5.93
2022-11-29T06:25:34.288Z,5.97
2022-11-29T06:28:35.164Z,5.99
2022-11-29T06:31:40.216Z,5.87
2022-11-29T06:34:18.230Z,5.81
2022-11-29T06:37:16.399Z,5.92
2022-11-29T06:39:47.584Z,5.94
2022-11-29T06:42:18.516Z,5.93
2022-11-29T06:44:48.077Z,5.94
2022-11-29T06:47:43.525Z,5.94
2022-11-29T06:50:53.483Z,5.98
2022-11-29T06:53:34.909Z,6.03
2022-11-29T06:56:08.715Z,6.04
2022-11-29T06:59:08.186Z,6.08
2022-11-29T07:02:21.363Z,6.12
2022-11-29T07:05:28.109Z,6.18
2022-11-29T07:08:02.250Z,6.19
2022-11-29T07:10:33.540Z,6.19
2022-11-29T07:13:01.234Z,6.21
2022-11-29T07:15:51.106Z,6.21
2022-11-29T07:18:57.165Z,6.25
2022-11-29T07:22:08.289Z,6.21
2022-11-29T07:25:20.458Z,6.26
2022-11-29T07:28:26.351Z,6.13
2022-11-29T07:31:19.626Z,6.08
2022-11-29T07:34:05.643Z,6.09
2022-11-29T07:37:00.992Z,6.08
2022-11-29T07:40:02.942Z,6.15
2022-11-29T07:43:11.870Z,5.93
2022-11-29T07:45:41.145Z,5.74
2022-11-29T07:48:12.496Z,5.70
2022-11-29T07:50:41.097Z,5.85
2022-11-29T07:53:17.154Z,5.95
2022-11-29T07:55:56.841Z,6.02
2022-11-29T07:58:25.691Z,6.06
2022-11-29T08:00:53.217Z,6.12
2022-11-29T08:04:15.598Z,6.18
2022-11-29T08:06:45.234Z,6.13
2022-11-29T08:09:13.733Z,5.97
2022-11-29T08:11:42.419Z,5.92
2022-11-29T08:14:10.289Z,5.86
2022-11-29T08:16:38.666Z,5.79
2022-11-29T08:19:06.436Z,5.74
2022-11-29T08:21:34.492Z,5.76
2022-11-29T08:24:01.802Z,5.72
2022-11-29T08:26:31.829Z,5.77
2022-11-29T08:29:25.587Z,5.77
2022-11-29T08:32:18.423Z,5.87
2022-11-29T08:34:45.737Z,5.74
2022-11-29T08:37:14.230Z,5.77
2022-11-29T08:39:41.720Z,5.94
2022-11-29T08:42:09.863Z,6.04
2022-11-29T08:45:09.768Z,6.09
2022-11-29T08:47:38.817Z,6.10
2022-11-29T08:50:14.793Z,5.99
2022-11-29T08:53:08.544Z,6.02
2022-11-29T08:55:42.953Z,6.11
2022-11-29T08:58:16.877Z,6.00
2022-11-29T09:00:47.111Z,6.05
2022-11-29T09:03:51.255Z,5.92
2022-11-29T09:06:18.559Z,5.65
2022-11-29T09:09:36.865Z,5.75
2022-11-29T09:12:14.429Z,5.82
2022-11-29T09:14:42.985Z,5.87
2022-11-29T09:17:10.813Z,5.85
2022-11-29T09:19:39.468Z,5.93
2022-11-29T09:22:07.733Z,5.91
2022-11-29T09:24:36.948Z,6.04
2022-11-29T09:27:06.630Z,6.03
2022-11-29T09:29:35.742Z,6.02
2022-11-29T09:32:04.035Z,6.07
2022-11-29T09:34:31.368Z,6.02
2022-11-29T09:36:59.133Z,6.01
2022-11-29T09:39:26.570Z,6.06
2022-11-29T09:42:50.959Z,6.02
2022-11-29T09:45:32.519Z,5.86
2022-11-29T09:48:33.617Z,6.05
2022-11-29T09:51:39.825Z,5.90
2022-11-29T09:55:05.600Z,6.10
2022-11-29T09:57:33.600Z,6.20
2022-11-29T10:00:07.784Z,6.30
2022-11-29T10:02:48.966Z,6.24
2022-11-29T10:05:24.771Z,6.36
2022-11-29T10:08:22.279Z,6.44
2022-11-29T10:11:02.458Z,6.44
2022-11-29T10:13:36.363Z,6.38
2022-11-29T10:16:19.767Z,6.26
2022-11-29T10:19:08.332Z,6.34
2022-11-29T10:21:43.692Z,6.44
2022-11-29T10:24:20.539Z,6.47
2022-11-29T10:26:47.516Z,6.42
2022-11-29T10:29:16.979Z,6.40
2022-11-29T10:31:49.689Z,6.44
2022-11-29T10:34:22.761Z,6.48
2022-11-29T10:37:01.494Z,6.34
2022-11-29T10:39:57.312Z,6.47
2022-11-29T10:42:45.924Z,6.46
2022-11-29T10:45:27.959Z,6.35
2022-11-29T10:48:04.130Z,6.27
2022-11-29T10:50:40.397Z,6.31
2022-11-29T10:53:20.284Z,6.27
2022-11-29T10:56:05.785Z,6.29
2022-11-29T10:58:33.668Z,6.33
2022-11-29T11:01:08.553Z,6.21
2022-11-29T11:03:53.056Z,6.16
2022-11-29T11:06:44.257Z,6.22
2022-11-29T11:09:41.735Z,6.30
2022-11-29T11:12:16.084Z,6.35
2022-11-29T11:14:45.221Z,6.30
2022-11-29T11:17:32.782Z,6.38
2022-11-29T11:20:18.915Z,6.48
2022-11-29T11:22:59.885Z,6.51
2022-11-29T11:25:32.293Z,6.60
2022-11-29T11:28:21.524Z,6.55
2022-11-29T11:31:00.781Z,6.59
2022-11-29T11:33:37.033Z,6.60
2022-11-29T11:36:27.386Z,6.50
2022-11-29T11:39:12.104Z,6.58
2022-11-29T11:42:02.411Z,6.60
2022-11-29T11:44:52.622Z,6.54
2022-11-29T11:47:27.943Z,6.60
2022-11-29T11:50:41.180Z,6.60
2022-11-29T11:53:30.534Z,6.64
2022-11-29T11:56:03.016Z,6.64
2022-11-29T12:01:41.813Z,6.56
2022-11-29T12:04:47.564Z,6.50
2022-11-29T12:08:15.897Z,6.57
2022-11-29T12:10:55.505Z,6.65
2022-11-29T12:13:48.664Z,6.68
2022-11-29T12:16:38.915Z,6.78
2022-11-29T12:19:21.864Z,6.83
2022-11-29T12:21:59.689Z,6.83
2022-11-29T12:25:21.534Z,6.80
2022-11-29T12:27:51.938Z,6.56
2022-11-29T12:30:20.661Z,6.62
2022-11-29T12:32:59.977Z,6.66
2022-11-29T12:35:42.039Z,6.74
2022-11-29T12:38:32.188Z,6.81
2022-11-29T12:41:25.531Z,6.82
2022-11-29T12:44:20.074Z,6.87
2022-11-29T12:48:18.102Z,6.91
2022-11-29T12:51:14.474Z,6.93
2022-11-29T12:53:54.201Z,6.94
2022-11-29T12:56:50.916Z,6.97
2022-11-29T13:00:08.441Z,6.78
2022-11-29T13:03:59.419Z,6.79
2022-11-29T13:07:02.961Z,6.89
2022-11-29T13:10:18.108Z,6.79
2022-11-29T13:13:17.486Z,6.86
2022-11-29T13:16:07.588Z,6.86
2022-11-29T13:19:07.774Z,6.81
2022-11-29T13:21:58.194Z,6.88
2022-11-29T13:24:50.819Z,6.89
2022-11-29T13:27:35.365Z,6.96
2022-11-29T13:30:15.692Z,7.00
2022-11-29T13:33:16.588Z,6.95
2022-11-29T13:36:08.709Z,6.95
2022-11-29T13:39:12.086Z,6.96
2022-11-29T13:42:16.101Z,6.97
2022-11-29T13:44:47.351Z,6.96
2022-11-29T13:47:23.753Z,6.79
2022-11-29T13:50:03.629Z,6.61
2022-11-29T13:53:15.472Z,6.74
2022-11-29T13:56:26.565Z,6.73
2022-11-29T13:58:55.133Z,6.73
2022-11-29T14:01:27.233Z,6.70
2022-11-29T14:04:47.904Z,6.56
2022-11-29T14:07:19.834Z,6.62
2022-11-29T14:10:33.023Z,6.62
2022-11-29T14:13:01.933Z,6.64
2022-11-29T14:16:14.986Z,6.68
2022-11-29T14:18:44.722Z,6.69
2022-11-29T14:22:08.793Z,6.67
2022-11-29T14:24:52.210Z,6.71
2022-11-29T14:27:59.443Z,6.78
2022-11-29T14:31:02.227Z,6.82
2022-11-29T14:34:09.117Z,6.81
2022-11-29T14:37:23.765Z,6.72
2022-11-29T14:40:18.980Z,6.76
2022-11-29T14:44:10.445Z,6.81
2022-11-29T14:46:37.445Z,6.76
2022-11-29T14:49:05.570Z,6.67
2022-11-29T14:51:34.937Z,6.72
2022-11-29T14:54:13.173Z,6.66
2022-11-29T14:56:46.340Z,6.67
2022-11-29T14:59:53.214Z,6.70
2022-11-29T15:06:03.987Z,6.71
2022-11-29T15:08:44.085Z,6.69
2022-11-29T15:12:51.482Z,6.71
2022-11-29T15:15:42.089Z,6.69
2022-11-29T15:18:22.610Z,6.71
2022-11-29T15:21:16.852Z,6.64
2022-11-29T15:23:44.915Z,6.67
2022-11-29T15:26:21.228Z,6.71
2022-11-29T15:28:48.460Z,6.78
2022-11-29T15:31:24.536Z,6.81
2022-11-29T15:33:54.240Z,6.60
2022-11-29T15:36:25.846Z,6.69
2022-11-29T15:39:52.738Z,6.66
2022-11-29T15:42:19.591Z,6.59
2022-11-29T15:45:08.293Z,6.44
2022-11-29T15:50:33.499Z,6.36
2022-11-29T15:53:13.976Z,6.40
2022-11-29T15:55:45.005Z,6.35
2022-11-29T15:58:15.438Z,6.38
2022-11-29T16:00:49.802Z,6.45
2022-11-29T16:03:36.300Z,6.43
2022-11-29T16:06:29.962Z,6.42
2022-11-29T16:09:34.144Z,6.44
2022-11-29T16:12:03.178Z,6.48
2022-11-29T16:14:30.934Z,6.37
2022-11-29T16:17:11.935Z,6.35
2022-11-29T16:20:09.806Z,6.34
2022-11-29T16:22:43.620Z,6.39
2022-11-29T16:26:07.051Z,6.45
2022-11-29T16:29:20.405Z,6.51
2022-11-29T16:32:00.587Z,6.38
2022-11-29T16:34:36.107Z,6.35
2022-11-29T16:37:23.040Z,6.28
2022-11-29T16:40:23.794Z,6.32
2022-11-29T16:43:43.660Z,6.38
2022-11-29T16:46:22.586Z,6.33
2022-11-29T16:48:54.551Z,6.36
2022-11-29T16:51:47.708Z,6.27
2022-11-29T16:54:21.633Z,6.36
2022-11-29T16:57:43.662Z,6.40
2022-11-29T17:00:29.044Z,6.24
2022-11-29T17:02:56.635Z,6.40
2022-11-29T17:05:23.750Z,6.46
2022-11-29T17:08:14.030Z,6.54
2022-11-29T17:10:43.894Z,6.57
2022-11-29T17:13:11.933Z,6.62
2022-11-29T17:15:50.327Z,6.57
2022-11-29T17:18:46.891Z,6.58
2022-11-29T17:21:37.901Z,6.51
2022-11-29T17:24:17.647Z,6.49
2022-11-29T17:26:46.230Z,6.54
2022-11-29T17:29:20.693Z,6.55
2022-11-29T17:31:50.475Z,6.61
2022-11-29T17:34:18.092Z,6.61
2022-11-29T17:36:45.325Z,6.63
2022-11-29T17:39:12.751Z,6.70
2022-11-29T17:41:39.568Z,6.70
2022-11-29T17:44:06.587Z,6.70
2022-11-29T17:46:36.876Z,6.74
2022-11-29T17:49:12.093Z,6.70
2022-11-29T17:51:51.560Z,6.56
2022-11-29T17:54:23.355Z,6.60
2022-11-29T17:56:51.986Z,6.64
2022-11-29T17:59:32.267Z,6.69
2022-11-29T18:02:15.579Z,6.68
2022-11-29T18:05:13.801Z,6.72
2022-11-29T18:08:00.911Z,6.64
2022-11-29T18:10:31.995Z,6.58
2022-11-29T18:12:58.958Z,6.61
2022-11-29T18:16:11.278Z,6.61
2022-11-29T18:18:40.464Z,6.64
2022-11-29T18:21:12.318Z,6.62
2022-11-29T18:24:09.287Z,6.57
2022-11-29T18:26:48.623Z,6.60
2022-11-29T18:29:18.747Z,6.59
2022-11-29T18:32:28.074Z,6.55
2022-11-29T18:35:02.398Z,6.49
2022-11-29T18:38:05.049Z,6.50
2022-11-29T18:40:20.451Z,6.47
2022-11-29T18:42:49.459Z,6.40
2022-11-29T18:45:38.489Z,6.44
2022-11-29T18:48:06.906Z,6.41
2022-11-29T18:50:49.012Z,6.47
2022-11-29T18:53:36.645Z,6.51
2022-11-29T18:56:12.561Z,6.52
2022-11-29T18:58:40.428Z,6.57
2022-11-29T19:01:34.518Z,6.56
2022-11-29T19:04:15.476Z,6.41
2022-11-29T19:06:43.868Z,6.44
2022-11-29T19:09:57.391Z,6.45
2022-11-29T19:12:24.938Z,6.50
2022-11-29T19:15:03.898Z,6.46
2022-11-29T19:17:45.679Z,6.40
2022-11-29T19:20:28.544Z,6.29
2022-11-29T19:23:00.313Z,6.32
2022-11-29T19:25:28.991Z,6.36
2022-11-29T19:27:57.622Z,6.43
2022-11-29T19:30:28.590Z,6.45
2022-11-29T19:32:56.026Z,6.45
2022-11-29T19:35:22.923Z,6.41
2022-11-29T19:37:50.108Z,6.44
2022-11-29T19:40:17.397Z,6.49
2022-11-29T19:42:49.234Z,6.37
2022-11-29T19:45:19.433Z,6.39
2022-11-29T19:47:54.774Z,6.35
2022-11-29T19:50:52.348Z,6.34
2022-11-29T19:53:36.460Z,6.39
2022-11-29T19:57:03.191Z,6.30
2022-11-29T19:59:33.908Z,6.37
2022-11-29T20:02:06.374Z,6.13
2022-11-29T20:05:17.766Z,6.23
2022-11-29T20:07:44.899Z,6.22
2022-11-29T20:10:12.427Z,6.24
2022-11-29T20:13:29.776Z,6.29
2022-11-29T20:16:08.598Z,6.38
2022-11-29T20:18:39.420Z,6.35
2022-11-29T20:21:13.124Z,6.38
2022-11-29T20:23:45.243Z,6.37
2022-11-29T20:26:23.779Z,6.39
2022-11-29T20:28:51.328Z,6.31
2022-11-29T20:31:23.214Z,6.10
2022-11-29T20:33:58.395Z,6.10
2022-11-29T20:37:02.313Z,6.16
2022-11-29T20:39:32.333Z,6.22
2022-11-29T20:42:29.972Z,6.23
2022-11-29T20:45:06.545Z,6.29
2022-11-29T20:48:18.168Z,6.33
2022-11-29T20:51:02.375Z,6.36
2022-11-29T20:53:52.454Z,6.38
2022-11-29T20:56:19.341Z,6.43
2022-11-29T20:58:46.525Z,6.43
2022-11-29T21:01:13.615Z,6.46
2022-11-29T21:03:40.849Z,6.49
2022-11-29T21:06:08.002Z,6.49
2022-11-29T21:08:35.477Z,6.43
2022-11-29T21:11:26.418Z,6.36
2022-11-29T21:13:54.856Z,6.37
2022-11-29T21:16:31.708Z,6.44
2022-11-29T21:19:11.197Z,6.07
2022-11-29T21:22:04.672Z,6.14
2022-11-29T21:24:46.890Z,6.21
2022-11-29T21:27:38.754Z,6.31
2022-11-29T21:30:55.578Z,6.36
2022-11-29T21:33:52.065Z,6.34
2022-11-29T21:36:26.802Z,6.13
2022-11-29T21:38:55.417Z,6.13
2022-11-29T21:41:36.444Z,6.17
2022-11-29T21:44:07.749Z,6.08
2022-11-29T21:46:37.008Z,6.09
2022-11-29T21:49:06.041Z,6.07
2022-11-29T21:51:39.838Z,6.05
2022-11-29T21:54:06.851Z,6.01
2022-11-29T21:56:34.294Z,6.00
2022-11-29T21:59:01.265Z,5.91
2022-11-29T22:01:29.480Z,6.01
2022-11-29T22:03:56.888Z,6.08
2022-11-29T22:06:26.100Z,6.13
2022-11-29T22:09:04.409Z,6.16
2022-11-29T22:11:31.919Z,6.15
2022-11-29T22:14:13.924Z,6.22
2022-11-29T22:17:01.486Z,6.20
2022-11-29T22:19:38.272Z,6.22
2022-11-29T22:22:10.901Z,6.15
2022-11-29T22:24:38.426Z,6.10
2022-11-29T22:27:05.643Z,6.08
2022-11-29T22:29:32.601Z,6.04
2022-11-29T22:32:01.175Z,6.03
2022-11-29T22:34:28.534Z,6.01
2022-11-29T22:36:56.544Z,5.98
2022-11-29T22:39:24.214Z,6.06
2022-11-29T22:41:54.556Z,6.13
2022-11-29T22:44:30.207Z,6.06
2022-11-29T22:46:57.257Z,6.03
2022-11-29T22:49:24.251Z,6.07
2022-11-29T22:51:52.430Z,6.10
2022-11-29T22:54:20.285Z,6.12
2022-11-29T22:56:47.843Z,6.14
2022-11-29T22:59:14.875Z,6.17
2022-11-29T23:01:43.103Z,6.10
2022-11-29T23:04:12.234Z,6.16
2022-11-29T23:06:48.529Z,6.15
2022-11-29T23:09:55.807Z,6.13
2022-11-29T23:12:22.983Z,6.16
2022-11-29T23:14:55.828Z,6.14
2022-11-29T23:17:27.785Z,6.10
2022-11-29T23:19:55.336Z,6.11
2022-11-29T23:22:23.049Z,6.14
2022-11-29T23:24:50.370Z,6.14
2022-11-29T23:27:18.134Z,6.18
2022-11-29T23:29:45.519Z,6.22
2022-11-29T23:32:15.817Z,6.24
2022-11-29T23:34:42.690Z,6.26
2022-11-29T23:37:09.841Z,6.24
2022-11-29T23:39:50.672Z,6.19
2022-11-29T23:42:17.923Z,6.12
2022-11-29T23:44:45.123Z,6.13
2022-11-29T23:47:12.466Z,6.14
2022-11-29T23:49:39.954Z,6.18
2022-11-29T23:52:07.178Z,6.17
2022-11-29T23:54:34.133Z,6.16
2022-11-29T23:57:01.276Z,6.08
2022-11-29T23:59:28.413Z,6.04
